首页
METAR-TAF:

METAR-TAF

机场 :

Fort Huachuca / Sierra Vista, 亞利桑那州, 美国

纬度: 31-35N, 经度: 110-20W, 海拔: 1438米

当前天气观测

该预报发布于56分钟前的04:55 UTC
风速11节,风向西转西南
温度 24°C
湿度 18%
气压 1019 hPa
能見度: 16.1公里
天空无云

METAR: KFHU 190455Z AUTO 24011KT 10SM CLR 24/M02 A3010 RMK AO2 SLP124 T02411017

时间: 22:51 (05:51 UTC)

预报

该预报发布于25小时和51分钟前的04:00 UTC
预报有效从18日的 04点(UTC)到 19日的 10点(UTC)
风速6节,风向多变
能見度: 1811
天空无云
成为
从 18日的 15点(UTC)到 18日的 16点(UTC)
风速12节,风向南转南东
能见度10公里或以上
少量云层高于20000英尺
成为
从 18日的 18点(UTC)到 18日的 19点(UTC)
风速14节,风向西转西南,有时为22节阵风
能见度10公里或以上
少量云层高于20000英尺
成为
从 19日的 01点(UTC)到 19日的 02点(UTC)
风速12节,风向西转西南
能見度: 2006
天空无云

TAF: KFHU 180400Z 1804/1910 22009KT 9999 SKC QNH3001INS WND VRB06KT AFT 1811 BECMG 1815/1816 15012KT 9999 FEW200 QNH3008INS BECMG 1818/1819 24014G22KT 9999 FEW200 510007 QNH2999INS BECMG 1901/1902 25012KT 9999 SKC QNH3000INS TX33/1821Z TN15/1812Z LAST NO AMDS AFT 1806 NEXT 2006

超过4000个机场的气象观测和天气预报(METAR&TAF报告)。

可查询的气象台以黄色和红色小点在地图上表示。

将鼠标移到小点上方,可查看气象台名称。

然后点击查看天气观测和预报。

如需切换地图:点击带黑十字的绿色按钮放大地图;点击带横线的绿色按钮缩小地图;或者点击绿色箭头查看邻近地区的地图。


METAR-TAF: